sensor_id;sensor_type;location;lat;lon;timestamp;pressure;altitude;pressure_sealevel;temperature;humidity
74905;BME280;63465;50.862;6.220;2022-12-07T00:01:14;100113.34;;;4.27;87.56
74905;BME280;63465;50.862;6.220;2022-12-07T00:03:43;100107.13;;;4.32;87.56
74905;BME280;63465;50.862;6.220;2022-12-07T00:06:11;100105.19;;;4.43;87.72
74905;BME280;63465;50.862;6.220;2022-12-07T00:08:40;100108.88;;;4.33;87.48
74905;BME280;63465;50.862;6.220;2022-12-07T00:11:09;100104.22;;;4.47;87.10
74905;BME280;63465;50.862;6.220;2022-12-07T00:13:36;100099.94;;;4.43;87.14
74905;BME280;63465;50.862;6.220;2022-12-07T00:16:05;100098.97;;;4.47;87.48
74905;BME280;63465;50.862;6.220;2022-12-07T00:18:32;100099.03;;;4.44;87.52
74905;BME280;63465;50.862;6.220;2022-12-07T00:21:00;100102.47;;;4.49;86.96
74905;BME280;63465;50.862;6.220;2022-12-07T00:23:27;100103.41;;;4.45;87.38
74905;BME280;63465;50.862;6.220;2022-12-07T00:25:55;100104.41;;;4.36;87.67
74905;BME280;63465;50.862;6.220;2022-12-07T00:28:22;100099.06;;;4.42;87.59
74905;BME280;63465;50.862;6.220;2022-12-07T00:30:48;100087.66;;;4.43;86.89
74905;BME280;63465;50.862;6.220;2022-12-07T00:33:15;100085.84;;;4.47;87.32
74905;BME280;63465;50.862;6.220;2022-12-07T00:35:42;100089.19;;;4.57;87.04
74905;BME280;63465;50.862;6.220;2022-12-07T00:38:08;100078.91;;;4.44;86.70
74905;BME280;63465;50.862;6.220;2022-12-07T00:40:35;100080.72;;;4.39;87.19
74905;BME280;63465;50.862;6.220;2022-12-07T00:43:03;100075.50;;;4.38;87.32
74905;BME280;63465;50.862;6.220;2022-12-07T00:45:30;100081.44;;;4.49;87.11
74905;BME280;63465;50.862;6.220;2022-12-07T00:47:56;100068.47;;;4.40;87.31
74905;BME280;63465;50.862;6.220;2022-12-07T00:50:23;100081.59;;;4.40;87.69
74905;BME280;63465;50.862;6.220;2022-12-07T00:52:49;100079.69;;;4.48;87.25
74905;BME280;63465;50.862;6.220;2022-12-07T00:55:16;100082.31;;;4.48;87.06
74905;BME280;63465;50.862;6.220;2022-12-07T00:57:43;100079.03;;;4.37;87.61
74905;BME280;63465;50.862;6.220;2022-12-07T01:00:11;100075.44;;;4.41;87.02
74905;BME280;63465;50.862;6.220;2022-12-07T01:02:38;100077.03;;;4.50;87.50
74905;BME280;63465;50.862;6.220;2022-12-07T01:05:05;100071.91;;;4.42;87.13
74905;BME280;63465;50.862;6.220;2022-12-07T01:07:32;100069.19;;;4.48;87.19
74905;BME280;63465;50.862;6.220;2022-12-07T01:09:59;100076.16;;;4.51;87.07
74905;BME280;63465;50.862;6.220;2022-12-07T01:12:26;100071.81;;;4.48;86.87
74905;BME280;63465;50.862;6.220;2022-12-07T01:14:52;100076.28;;;4.44;86.86
74905;BME280;63465;50.862;6.220;2022-12-07T01:17:20;100074.53;;;4.43;87.41
74905;BME280;63465;50.862;6.220;2022-12-07T01:19:47;100072.72;;;4.45;87.19
74905;BME280;63465;50.862;6.220;2022-12-07T01:22:13;100080.59;;;4.47;87.10
74905;BME280;63465;50.862;6.220;2022-12-07T01:24:40;100079.75;;;4.45;86.83
74905;BME280;63465;50.862;6.220;2022-12-07T01:27:07;100080.63;;;4.44;87.36
74905;BME280;63465;50.862;6.220;2022-12-07T01:29:33;100077.22;;;4.40;87.37
74905;BME280;63465;50.862;6.220;2022-12-07T01:32:00;100072.88;;;4.38;87.33
74905;BME280;63465;50.862;6.220;2022-12-07T01:34:28;100085.00;;;4.45;86.96
74905;BME280;63465;50.862;6.220;2022-12-07T01:36:55;100081.59;;;4.40;86.77
74905;BME280;63465;50.862;6.220;2022-12-07T01:39:21;100088.47;;;4.47;86.74
74905;BME280;63465;50.862;6.220;2022-12-07T01:41:48;100087.69;;;4.42;86.62
74905;BME280;63465;50.862;6.220;2022-12-07T01:44:20;100088.53;;;4.42;87.17
74905;BME280;63465;50.862;6.220;2022-12-07T01:46:48;100088.59;;;4.39;87.51
74905;BME280;63465;50.862;6.220;2022-12-07T01:49:38;100096.38;;;4.45;87.37
74905;BME280;63465;50.862;6.220;2022-12-07T01:52:12;100088.69;;;4.35;87.51
74905;BME280;63465;50.862;6.220;2022-12-07T01:54:40;100091.38;;;4.32;87.91
74905;BME280;63465;50.862;6.220;2022-12-07T01:57:08;100086.03;;;4.36;87.88
74905;BME280;63465;50.862;6.220;2022-12-07T01:59:35;100079.06;;;4.35;88.11
74905;BME280;63465;50.862;6.220;2022-12-07T02:02:04;100085.84;;;4.47;87.74
74905;BME280;63465;50.862;6.220;2022-12-07T02:04:35;100077.13;;;4.45;87.93
74905;BME280;63465;50.862;6.220;2022-12-07T02:07:04;100081.53;;;4.44;87.73
74905;BME280;63465;50.862;6.220;2022-12-07T02:09:31;100075.47;;;4.39;88.19
74905;BME280;63465;50.862;6.220;2022-12-07T02:11:58;100079.75;;;4.45;87.78
74905;BME280;63465;50.862;6.220;2022-12-07T02:14:24;100079.72;;;4.46;87.80
74905;BME280;63465;50.862;6.220;2022-12-07T02:17:00;100062.00;;;4.56;87.38
74905;BME280;63465;50.862;6.220;2022-12-07T02:19:51;100060.72;;;4.32;88.15
74905;BME280;63465;50.862;6.220;2022-12-07T02:25:27;100056.38;;;4.29;88.36
74905;BME280;63465;50.862;6.220;2022-12-07T02:28:03;100059.78;;;4.35;88.31
74905;BME280;63465;50.862;6.220;2022-12-07T02:30:35;100062.34;;;4.38;88.04
74905;BME280;63465;50.862;6.220;2022-12-07T02:33:08;100055.44;;;4.34;88.16
74905;BME280;63465;50.862;6.220;2022-12-07T02:35:41;100062.50;;;4.28;88.35
74905;BME280;63465;50.862;6.220;2022-12-07T02:38:14;100060.69;;;4.34;87.95
74905;BME280;63465;50.862;6.220;2022-12-07T02:40:46;100053.56;;;4.40;88.16
74905;BME280;63465;50.862;6.220;2022-12-07T02:43:18;100065.94;;;4.34;87.98
74905;BME280;63465;50.862;6.220;2022-12-07T02:45:48;100058.00;;;4.37;88.14
74905;BME280;63465;50.862;6.220;2022-12-07T02:48:18;100057.13;;;4.36;88.33
74905;BME280;63465;50.862;6.220;2022-12-07T02:50:48;100056.34;;;4.31;87.80
74905;BME280;63465;50.862;6.220;2022-12-07T02:53:31;100055.34;;;4.40;87.73
74905;BME280;63465;50.862;6.220;2022-12-07T02:55:59;100058.06;;;4.34;88.22
74905;BME280;63465;50.862;6.220;2022-12-07T02:58:37;100061.63;;;4.29;87.86
74905;BME280;63465;50.862;6.220;2022-12-07T03:01:16;100059.88;;;4.28;88.00
74905;BME280;63465;50.862;6.220;2022-12-07T03:03:58;100067.63;;;4.36;88.29
74905;BME280;63465;50.862;6.220;2022-12-07T03:06:31;100061.56;;;4.33;87.66
74905;BME280;63465;50.862;6.220;2022-12-07T03:09:08;100060.66;;;4.37;87.80
74905;BME280;63465;50.862;6.220;2022-12-07T03:11:45;100059.00;;;4.29;87.55
74905;BME280;63465;50.862;6.220;2022-12-07T03:14:16;100069.47;;;4.33;87.81
74905;BME280;63465;50.862;6.220;2022-12-07T03:16:51;100067.72;;;4.32;87.57
74905;BME280;63465;50.862;6.220;2022-12-07T03:19:21;100066.69;;;4.40;87.56
74905;BME280;63465;50.862;6.220;2022-12-07T03:21:55;100063.28;;;4.35;87.77
74905;BME280;63465;50.862;6.220;2022-12-07T03:24:26;100065.00;;;4.36;87.67
74905;BME280;63465;50.862;6.220;2022-12-07T03:27:04;100067.66;;;4.35;87.80
74905;BME280;63465;50.862;6.220;2022-12-07T03:29:35;100063.38;;;4.31;87.65
74905;BME280;63465;50.862;6.220;2022-12-07T03:32:06;100064.16;;;4.36;87.78
74905;BME280;63465;50.862;6.220;2022-12-07T03:34:40;100057.88;;;4.44;87.12
74905;BME280;63465;50.862;6.220;2022-12-07T03:37:13;100058.16;;;4.29;87.89
74905;BME280;63465;50.862;6.220;2022-12-07T03:39:45;100064.97;;;4.38;87.32
74905;BME280;63465;50.862;6.220;2022-12-07T03:42:15;100065.06;;;4.33;87.45
74905;BME280;63465;50.862;6.220;2022-12-07T03:44:42;100057.97;;;4.40;87.25
74905;BME280;63465;50.862;6.220;2022-12-07T03:47:14;100060.63;;;4.38;87.91
74905;BME280;63465;50.862;6.220;2022-12-07T03:49:49;100062.34;;;4.38;87.35
74905;BME280;63465;50.862;6.220;2022-12-07T03:52:22;100057.09;;;4.38;87.24
74905;BME280;63465;50.862;6.220;2022-12-07T03:54:54;100059.78;;;4.35;87.86
74905;BME280;63465;50.862;6.220;2022-12-07T03:57:24;100058.19;;;4.26;88.10
74905;BME280;63465;50.862;6.220;2022-12-07T03:59:53;100063.28;;;4.35;87.35
74905;BME280;63465;50.862;6.220;2022-12-07T04:02:22;100057.31;;;4.25;87.38
74905;BME280;63465;50.862;6.220;2022-12-07T04:04:50;100060.78;;;4.29;87.59
74905;BME280;63465;50.862;6.220;2022-12-07T04:07:16;100063.47;;;4.26;87.78
74905;BME280;63465;50.862;6.220;2022-12-07T04:09:43;100059.06;;;4.26;88.30
74905;BME280;63465;50.862;6.220;2022-12-07T04:12:10;100062.44;;;4.33;87.73
74905;BME280;63465;50.862;6.220;2022-12-07T04:14:36;100051.94;;;4.32;87.40
74905;BME280;63465;50.862;6.220;2022-12-07T04:17:03;100049.34;;;4.30;88.01
74905;BME280;63465;50.862;6.220;2022-12-07T04:19:33;100057.28;;;4.27;87.84
74905;BME280;63465;50.862;6.220;2022-12-07T04:22:03;100054.31;;;4.47;87.63
74905;BME280;63465;50.862;6.220;2022-12-07T04:24:30;100050.13;;;4.37;87.08
74905;BME280;63465;50.862;6.220;2022-12-07T04:26:57;100060.66;;;4.37;87.71
74905;BME280;63465;50.862;6.220;2022-12-07T04:29:24;100061.59;;;4.31;87.47
74905;BME280;63465;50.862;6.220;2022-12-07T04:31:51;100056.81;;;4.53;87.52
74905;BME280;63465;50.862;6.220;2022-12-07T04:34:19;100045.06;;;4.26;87.88
74905;BME280;63465;50.862;6.220;2022-12-07T04:36:47;100057.16;;;4.35;87.41
74905;BME280;63465;50.862;6.220;2022-12-07T04:39:19;100049.94;;;4.47;87.38
74905;BME280;63465;50.862;6.220;2022-12-07T04:41:46;100055.19;;;4.47;87.83
74905;BME280;63465;50.862;6.220;2022-12-07T04:44:14;100051.91;;;4.35;87.55
74905;BME280;63465;50.862;6.220;2022-12-07T04:46:41;100036.84;;;4.44;87.34
74905;BME280;63465;50.862;6.220;2022-12-07T04:49:08;100045.63;;;4.43;86.93
74905;BME280;63465;50.862;6.220;2022-12-07T04:51:34;100051.03;;;4.34;87.67
74905;BME280;63465;50.862;6.220;2022-12-07T04:54:02;100046.66;;;4.35;87.62
74905;BME280;63465;50.862;6.220;2022-12-07T04:56:29;100049.28;;;4.33;87.83
74905;BME280;63465;50.862;6.220;2022-12-07T04:58:56;100043.09;;;4.37;87.52
74905;BME280;63465;50.862;6.220;2022-12-07T05:01:23;100038.72;;;4.36;87.70
74905;BME280;63465;50.862;6.220;2022-12-07T05:03:50;100032.63;;;4.36;87.14
74905;BME280;63465;50.862;6.220;2022-12-07T05:06:17;100038.06;;;4.25;87.81
74905;BME280;63465;50.862;6.220;2022-12-07T05:08:44;100042.63;;;4.15;88.06
74905;BME280;63465;50.862;6.220;2022-12-07T05:11:12;100043.66;;;4.05;88.44
74905;BME280;63465;50.862;6.220;2022-12-07T05:14:00;100037.44;;;4.12;88.74
74905;BME280;63465;50.862;6.220;2022-12-07T05:16:27;100043.56;;;4.11;88.21
74905;BME280;63465;50.862;6.220;2022-12-07T05:18:54;100041.69;;;4.18;88.01
74905;BME280;63465;50.862;6.220;2022-12-07T05:21:21;100048.81;;;4.11;88.40
74905;BME280;63465;50.862;6.220;2022-12-07T05:23:48;100052.16;;;4.19;88.51
74905;BME280;63465;50.862;6.220;2022-12-07T05:26:16;100036.47;;;4.16;87.94
74905;BME280;63465;50.862;6.220;2022-12-07T05:28:43;100038.84;;;4.30;87.91
74905;BME280;63465;50.862;6.220;2022-12-07T05:31:09;100036.34;;;4.22;87.96
74905;BME280;63465;50.862;6.220;2022-12-07T05:33:36;100046.03;;;4.20;88.15
74905;BME280;63465;50.862;6.220;2022-12-07T05:36:03;100042.56;;;4.18;87.67
74905;BME280;63465;50.862;6.220;2022-12-07T05:38:31;100040.69;;;4.25;87.89
74905;BME280;63465;50.862;6.220;2022-12-07T05:41:00;100042.25;;;4.37;87.41
74905;BME280;63465;50.862;6.220;2022-12-07T05:43:29;100048.47;;;4.31;87.40
74905;BME280;63465;50.862;6.220;2022-12-07T05:45:56;100040.75;;;4.22;87.34
74905;BME280;63465;50.862;6.220;2022-12-07T05:48:23;100049.38;;;4.28;87.50
74905;BME280;63465;50.862;6.220;2022-12-07T05:50:51;100039.97;;;4.17;87.38
74905;BME280;63465;50.862;6.220;2022-12-07T05:53:18;100038.00;;;4.29;87.15
74905;BME280;63465;50.862;6.220;2022-12-07T05:55:45;100039.00;;;4.21;87.16
74905;BME280;63465;50.862;6.220;2022-12-07T05:58:11;100041.59;;;4.22;87.22
74905;BME280;63465;50.862;6.220;2022-12-07T06:00:57;100045.00;;;4.31;87.70
74905;BME280;63465;50.862;6.220;2022-12-07T06:03:23;100049.50;;;4.22;87.58
74905;BME280;63465;50.862;6.220;2022-12-07T06:05:51;100047.81;;;4.20;87.59
74905;BME280;63465;50.862;6.220;2022-12-07T06:08:18;100038.66;;;4.41;87.43
74905;BME280;63465;50.862;6.220;2022-12-07T06:10:46;100044.78;;;4.41;87.40
74905;BME280;63465;50.862;6.220;2022-12-07T06:13:33;100042.44;;;4.26;87.22
74905;BME280;63465;50.862;6.220;2022-12-07T06:16:00;100044.94;;;4.34;87.34
74905;BME280;63465;50.862;6.220;2022-12-07T06:18:27;100046.53;;;4.41;86.81
74905;BME280;63465;50.862;6.220;2022-12-07T06:20:53;100039.44;;;4.46;86.81
74905;BME280;63465;50.862;6.220;2022-12-07T06:23:20;100045.84;;;4.31;86.71
74905;BME280;63465;50.862;6.220;2022-12-07T06:25:46;100051.13;;;4.29;86.69
74905;BME280;63465;50.862;6.220;2022-12-07T06:28:13;100046.69;;;4.32;87.00
74905;BME280;63465;50.862;6.220;2022-12-07T06:30:40;100049.41;;;4.27;86.69
74905;BME280;63465;50.862;6.220;2022-12-07T06:33:08;100049.34;;;4.30;87.29
74905;BME280;63465;50.862;6.220;2022-12-07T06:35:34;100044.94;;;4.34;87.18
74905;BME280;63465;50.862;6.220;2022-12-07T06:38:01;100038.78;;;4.33;86.62
74905;BME280;63465;50.862;6.220;2022-12-07T06:40:28;100045.09;;;4.24;86.54
74905;BME280;63465;50.862;6.220;2022-12-07T06:42:54;100046.91;;;4.19;87.41
74905;BME280;63465;50.862;6.220;2022-12-07T06:45:21;100048.72;;;4.17;87.68
74905;BME280;63465;50.862;6.220;2022-12-07T06:47:48;100053.75;;;4.29;87.42
74905;BME280;63465;50.862;6.220;2022-12-07T06:50:16;100047.78;;;4.21;87.76
74905;BME280;63465;50.862;6.220;2022-12-07T06:52:43;100047.72;;;4.24;87.18
74905;BME280;63465;50.862;6.220;2022-12-07T06:55:09;100050.41;;;4.21;86.93
74905;BME280;63465;50.862;6.220;2022-12-07T06:57:36;100043.41;;;4.20;87.59
74905;BME280;63465;50.862;6.220;2022-12-07T07:00:04;100044.13;;;4.28;86.71
74905;BME280;63465;50.862;6.220;2022-12-07T07:02:31;100050.41;;;4.21;87.26
74905;BME280;63465;50.862;6.220;2022-12-07T07:04:57;100046.13;;;4.14;87.14
74905;BME280;63465;50.862;6.220;2022-12-07T07:07:25;100056.56;;;4.19;87.52
74905;BME280;63465;50.862;6.220;2022-12-07T07:09:52;100048.66;;;4.20;87.19
74905;BME280;63465;50.862;6.220;2022-12-07T07:12:19;100055.66;;;4.21;87.11
74905;BME280;63465;50.862;6.220;2022-12-07T07:14:45;100055.56;;;4.26;87.31
74905;BME280;63465;50.862;6.220;2022-12-07T07:17:12;100056.38;;;4.29;86.78
74905;BME280;63465;50.862;6.220;2022-12-07T07:19:39;100057.44;;;4.18;87.41
74905;BME280;63465;50.862;6.220;2022-12-07T07:22:06;100062.63;;;4.22;87.18
74905;BME280;63465;50.862;6.220;2022-12-07T07:24:34;100059.97;;;4.24;86.93
74905;BME280;63465;50.862;6.220;2022-12-07T07:27:00;100062.63;;;4.22;87.23
74905;BME280;63465;50.862;6.220;2022-12-07T07:29:27;100066.88;;;4.29;87.48
74905;BME280;63465;50.862;6.220;2022-12-07T07:31:54;100063.41;;;4.29;87.75
74905;BME280;63465;50.862;6.220;2022-12-07T07:34:20;100068.59;;;4.32;87.10
74905;BME280;63465;50.862;6.220;2022-12-07T07:36:47;100056.19;;;4.40;86.84
74905;BME280;63465;50.862;6.220;2022-12-07T07:39:14;100055.59;;;4.24;86.83
74905;BME280;63465;50.862;6.220;2022-12-07T07:41:42;100050.47;;;4.18;87.20
74905;BME280;63465;50.862;6.220;2022-12-07T07:44:12;100056.34;;;4.31;86.81
74905;BME280;63465;50.862;6.220;2022-12-07T07:46:39;100056.63;;;4.16;87.71
74905;BME280;63465;50.862;6.220;2022-12-07T07:49:06;100059.25;;;4.16;87.22
74905;BME280;63465;50.862;6.220;2022-12-07T07:51:32;100065.31;;;4.18;87.46
74905;BME280;63465;50.862;6.220;2022-12-07T07:53:59;100067.78;;;4.28;87.51
74905;BME280;63465;50.862;6.220;2022-12-07T07:56:25;100071.25;;;4.31;87.28
74905;BME280;63465;50.862;6.220;2022-12-07T07:58:54;100065.25;;;4.22;86.95
74905;BME280;63465;50.862;6.220;2022-12-07T08:01:21;100071.53;;;4.15;87.72
74905;BME280;63465;50.862;6.220;2022-12-07T08:03:47;100067.88;;;4.22;87.15
74905;BME280;63465;50.862;6.220;2022-12-07T08:06:14;100066.97;;;4.25;87.01
74905;BME280;63465;50.862;6.220;2022-12-07T08:08:41;100069.69;;;4.19;87.37
74905;BME280;63465;50.862;6.220;2022-12-07T08:11:08;100072.69;;;4.47;86.44
74905;BME280;63465;50.862;6.220;2022-12-07T08:13:35;100071.25;;;4.31;87.12
74905;BME280;63465;50.862;6.220;2022-12-07T08:16:06;100079.91;;;4.36;86.46
74905;BME280;63465;50.862;6.220;2022-12-07T08:18:35;100074.13;;;4.17;86.38
74905;BME280;63465;50.862;6.220;2022-12-07T08:21:02;100069.63;;;4.23;86.62
74905;BME280;63465;50.862;6.220;2022-12-07T08:23:29;100071.53;;;4.14;86.62
74905;BME280;63465;50.862;6.220;2022-12-07T08:26:00;100062.69;;;4.19;86.54
74905;BME280;63465;50.862;6.220;2022-12-07T08:28:27;100070.22;;;4.38;86.28
74905;BME280;63465;50.862;6.220;2022-12-07T08:30:58;100062.56;;;4.25;85.86
74905;BME280;63465;50.862;6.220;2022-12-07T08:33:26;100068.94;;;4.12;86.52
74905;BME280;63465;50.862;6.220;2022-12-07T08:35:53;100068.13;;;4.07;86.91
74905;BME280;63465;50.862;6.220;2022-12-07T08:38:20;100067.28;;;4.06;86.78
74905;BME280;63465;50.862;6.220;2022-12-07T08:40:53;100070.53;;;4.21;86.05
74905;BME280;63465;50.862;6.220;2022-12-07T08:43:20;100076.00;;;4.08;86.50
74905;BME280;63465;50.862;6.220;2022-12-07T08:45:47;100070.59;;;4.16;85.85
74905;BME280;63465;50.862;6.220;2022-12-07T08:48:14;100078.53;;;4.13;85.81
74905;BME280;63465;50.862;6.220;2022-12-07T08:50:44;100073.44;;;4.04;86.20
74905;BME280;63465;50.862;6.220;2022-12-07T08:53:11;100079.53;;;4.07;86.33
74905;BME280;63465;50.862;6.220;2022-12-07T08:55:38;100089.84;;;4.20;85.80
74905;BME280;63465;50.862;6.220;2022-12-07T08:58:04;100079.13;;;4.31;85.04
74905;BME280;63465;50.862;6.220;2022-12-07T09:00:31;100078.13;;;4.38;85.51
74905;BME280;63465;50.862;6.220;2022-12-07T09:02:58;100078.13;;;4.38;84.91
74905;BME280;63465;50.862;6.220;2022-12-07T09:05:24;100074.50;;;4.45;84.66
74905;BME280;63465;50.862;6.220;2022-12-07T09:07:56;100080.50;;;4.52;84.81
74905;BME280;63465;50.862;6.220;2022-12-07T09:10:24;100080.63;;;4.44;84.77
74905;BME280;63465;50.862;6.220;2022-12-07T09:12:51;100081.22;;;4.61;83.86
74905;BME280;63465;50.862;6.220;2022-12-07T09:15:17;100079.00;;;4.85;83.86
74905;BME280;63465;50.862;6.220;2022-12-07T09:17:44;100077.44;;;4.76;83.49
74905;BME280;63465;50.862;6.220;2022-12-07T09:20:11;100074.44;;;4.95;83.07
74905;BME280;63465;50.862;6.220;2022-12-07T09:22:38;100079.25;;;4.73;83.83
74905;BME280;63465;50.862;6.220;2022-12-07T09:25:07;100079.47;;;4.60;83.47
74905;BME280;63465;50.862;6.220;2022-12-07T09:27:33;100080.44;;;4.55;83.77
74905;BME280;63465;50.862;6.220;2022-12-07T09:30:01;100092.91;;;4.43;84.70
74905;BME280;63465;50.862;6.220;2022-12-07T09:32:27;100086.13;;;4.30;85.21
74905;BME280;63465;50.862;6.220;2022-12-07T09:34:54;100095.56;;;4.42;85.09
74905;BME280;63465;50.862;6.220;2022-12-07T09:37:21;100092.88;;;4.45;84.63
74905;BME280;63465;50.862;6.220;2022-12-07T09:39:48;100092.94;;;4.42;85.26
74905;BME280;63465;50.862;6.220;2022-12-07T09:42:26;100089.81;;;4.70;84.37
74905;BME280;63465;50.862;6.220;2022-12-07T09:44:53;100079.72;;;4.46;84.41
74905;BME280;63465;50.862;6.220;2022-12-07T09:47:20;100071.75;;;4.51;84.54
74905;BME280;63465;50.862;6.220;2022-12-07T09:49:47;100079.72;;;4.46;85.11
74905;BME280;63465;50.862;6.220;2022-12-07T09:52:19;100077.72;;;4.59;84.46
74905;BME280;63465;50.862;6.220;2022-12-07T09:54:49;100075.72;;;4.74;84.14
74905;BME280;63465;50.862;6.220;2022-12-07T09:57:17;100076.13;;;4.52;84.88
74905;BME280;63465;50.862;6.220;2022-12-07T09:59:45;100073.44;;;4.55;84.82
74905;BME280;63465;50.862;6.220;2022-12-07T10:02:34;100075.03;;;4.66;85.13
74905;BME280;63465;50.862;6.220;2022-12-07T10:05:01;100072.44;;;4.62;85.22
74905;BME280;63465;50.862;6.220;2022-12-07T10:07:29;100070.25;;;4.85;84.05
74905;BME280;63465;50.862;6.220;2022-12-07T10:09:56;100064.16;;;4.84;83.46
74905;BME280;63465;50.862;6.220;2022-12-07T10:12:23;100072.44;;;4.62;84.39
74905;BME280;63465;50.862;6.220;2022-12-07T10:14:55;100060.97;;;4.67;84.99
74905;BME280;63465;50.862;6.220;2022-12-07T10:17:29;100065.91;;;4.82;84.17
74905;BME280;63465;50.862;6.220;2022-12-07T10:20:13;100065.72;;;4.93;84.14
74905;BME280;63465;50.862;6.220;2022-12-07T10:22:54;100075.94;;;5.07;83.69
74905;BME280;63465;50.862;6.220;2022-12-07T10:25:22;100078.56;;;5.07;82.92
74905;BME280;63465;50.862;6.220;2022-12-07T10:27:58;100073.75;;;4.85;84.81
74905;BME280;63465;50.862;6.220;2022-12-07T10:30:26;100074.47;;;4.93;84.07
74905;BME280;63465;50.862;6.220;2022-12-07T10:32:53;100065.72;;;4.93;84.83
74905;BME280;63465;50.862;6.220;2022-12-07T10:35:23;100057.41;;;5.13;84.12
74905;BME280;63465;50.862;6.220;2022-12-07T10:37:52;100052.63;;;4.90;84.64
74905;BME280;63465;50.862;6.220;2022-12-07T10:40:29;100051.09;;;4.79;84.71
74905;BME280;63465;50.862;6.220;2022-12-07T10:43:04;100047.50;;;4.82;85.17
74905;BME280;63465;50.862;6.220;2022-12-07T10:45:34;100048.78;;;5.06;84.15
74905;BME280;63465;50.862;6.220;2022-12-07T10:48:08;100053.34;;;4.98;84.16
74905;BME280;63465;50.862;6.220;2022-12-07T10:50:49;100042.59;;;5.09;84.32
74905;BME280;63465;50.862;6.220;2022-12-07T10:53:48;100036.50;;;5.07;83.30
74905;BME280;63465;50.862;6.220;2022-12-07T10:56:50;100034.94;;;5.78;81.46
74905;BME280;63465;50.862;6.220;2022-12-07T10:59:45;100028.03;;;6.10;78.32
74905;BME280;63465;50.862;6.220;2022-12-07T11:02:25;100023.28;;;5.86;79.03
74905;BME280;63465;50.862;6.220;2022-12-07T11:05:13;100026.81;;;5.87;79.77
74905;BME280;63465;50.862;6.220;2022-12-07T11:07:47;100028.09;;;5.69;80.35
74905;BME280;63465;50.862;6.220;2022-12-07T11:10:19;100010.63;;;5.65;80.45
74905;BME280;63465;50.862;6.220;2022-12-07T11:12:58;100005.81;;;5.46;80.24
74905;BME280;63465;50.862;6.220;2022-12-07T11:15:33;100006.75;;;5.44;81.20
74905;BME280;63465;50.862;6.220;2022-12-07T11:18:13;100003.13;;;6.21;78.38
74905;BME280;63465;50.862;6.220;2022-12-07T11:20:45;99996.34;;;7.37;74.39
74905;BME280;63465;50.862;6.220;2022-12-07T11:23:22;99983.91;;;8.47;70.74
74905;BME280;63465;50.862;6.220;2022-12-07T11:25:58;99982.94;;;8.97;67.83
74905;BME280;63465;50.862;6.220;2022-12-07T11:28:40;99979.44;;;8.73;66.75
74905;BME280;63465;50.862;6.220;2022-12-07T11:31:18;99982.19;;;9.17;65.91
74905;BME280;63465;50.862;6.220;2022-12-07T11:33:53;99989.22;;;7.67;71.21
74905;BME280;63465;50.862;6.220;2022-12-07T11:36:36;99984.09;;;7.89;71.92
74905;BME280;63465;50.862;6.220;2022-12-07T11:39:25;99987.69;;;7.03;74.36
74905;BME280;63465;50.862;6.220;2022-12-07T11:41:56;99992.38;;;6.62;75.22
74905;BME280;63465;50.862;6.220;2022-12-07T11:44:32;99985.78;;;6.46;76.88
74905;BME280;63465;50.862;6.220;2022-12-07T11:47:06;99968.88;;;7.71;72.75
74905;BME280;63465;50.862;6.220;2022-12-07T11:49:42;99966.16;;;8.98;67.61
74905;BME280;63465;50.862;6.220;2022-12-07T11:52:24;99971.47;;;9.20;65.64
74905;BME280;63465;50.862;6.220;2022-12-07T11:54:53;99965.91;;;9.28;65.41
74905;BME280;63465;50.862;6.220;2022-12-07T11:57:25;99959.91;;;9.89;64.33
74905;BME280;63465;50.862;6.220;2022-12-07T11:59:59;99961.44;;;9.73;64.37
74905;BME280;63465;50.862;6.220;2022-12-07T12:02:33;99954.03;;;8.44;68.42
74905;BME280;63465;50.862;6.220;2022-12-07T12:05:13;99959.66;;;7.82;69.60
74905;BME280;63465;50.862;6.220;2022-12-07T12:07:41;99955.69;;;7.42;72.40
74905;BME280;63465;50.862;6.220;2022-12-07T12:10:17;99957.72;;;7.34;72.67
74905;BME280;63465;50.862;6.220;2022-12-07T12:13:10;99964.13;;;6.97;73.59
74905;BME280;63465;50.862;6.220;2022-12-07T12:15:51;99947.41;;;7.53;71.84
74905;BME280;63465;50.862;6.220;2022-12-07T12:18:50;99953.06;;;6.84;73.86
74905;BME280;63465;50.862;6.220;2022-12-07T12:21:23;99951.03;;;6.63;74.32
74905;BME280;63465;50.862;6.220;2022-12-07T12:23:56;99947.81;;;6.83;74.46
74905;BME280;63465;50.862;6.220;2022-12-07T12:26:27;99947.94;;;6.48;76.21
74905;BME280;63465;50.862;6.220;2022-12-07T12:28:57;99945.88;;;6.28;75.90
74905;BME280;63465;50.862;6.220;2022-12-07T12:31:33;99939.88;;;6.21;76.53
74905;BME280;63465;50.862;6.220;2022-12-07T12:34:03;99937.38;;;6.17;76.47
74905;BME280;63465;50.862;6.220;2022-12-07T12:36:46;99946.09;;;5.84;77.48
74905;BME280;63465;50.862;6.220;2022-12-07T12:39:14;99943.75;;;5.74;78.09
74905;BME280;63465;50.862;6.220;2022-12-07T12:42:17;99938.22;;;5.83;77.81
74905;BME280;63465;50.862;6.220;2022-12-07T12:45:18;99934.66;;;5.85;78.16
74905;BME280;63465;50.862;6.220;2022-12-07T12:48:07;99930.19;;;5.89;77.83
74905;BME280;63465;50.862;6.220;2022-12-07T12:54:08;99929.06;;;5.99;76.85
74905;BME280;63465;50.862;6.220;2022-12-07T12:56:40;99928.81;;;6.09;77.14
74905;BME280;63465;50.862;6.220;2022-12-07T12:59:26;99924.03;;;6.23;76.72
74905;BME280;63465;50.862;6.220;2022-12-07T13:01:56;99920.97;;;6.07;76.85
74905;BME280;63465;50.862;6.220;2022-12-07T13:04:49;99916.00;;;5.95;77.37
74905;BME280;63465;50.862;6.220;2022-12-07T13:07:58;99925.66;;;5.94;77.70
74905;BME280;63465;50.862;6.220;2022-12-07T13:10:47;99917.59;;;6.02;77.67
74905;BME280;63465;50.862;6.220;2022-12-07T13:13:34;99915.94;;;5.98;77.26
74905;BME280;63465;50.862;6.220;2022-12-07T13:16:36;99914.16;;;5.98;77.51
74905;BME280;63465;50.862;6.220;2022-12-07T13:22:35;99916.53;;;6.07;78.02
74905;BME280;63465;50.862;6.220;2022-12-07T13:25:09;99905.59;;;6.23;77.06
74905;BME280;63465;50.862;6.220;2022-12-07T13:27:40;99902.78;;;5.98;77.67
74905;BME280;63465;50.862;6.220;2022-12-07T13:30:14;99899.72;;;5.79;77.82
74905;BME280;63465;50.862;6.220;2022-12-07T13:32:42;99894.41;;;5.80;77.84